Time;durP1;ratioP1;P1;durP2;ratioP2;P2;SDS_P1;SDS_P2;PMS_P1;PMS_P2;Temp;Humidity;BMP_temperature;BMP_pressure;BME280_temperature;BME280_humidity;BME280_pressure;Samples;Min_cycle;Max_cycle;Signal;HPM_P1;HPM_P2
2022/01/28 00:04:51;;;;;;;19.53;14.47;;;;;;;2.34;100.00;101719.09;5003011;28;20552;-47
2022/01/28 00:07:17;;;;;;;17.90;14.00;;;;;;;2.33;100.00;101715.69;5005273;28;20311;-45
2022/01/28 00:09:42;;;;;;;17.57;14.20;;;;;;;2.34;100.00;101725.09;5005509;28;20295;-47
2022/01/28 00:12:10;;;;;;;18.80;14.60;;;;;;;2.36;100.00;101720.03;5006132;28;20227;-46
2022/01/28 00:14:45;;;;;;;18.20;13.93;;;;;;;2.37;100.00;101734.56;5005408;28;20206;-45
2022/01/28 00:39:03;;;;;;;20.97;16.47;;;;;;;2.51;100.00;101725.00;5004165;28;20668;-46
2022/01/28 00:41:29;;;;;;;26.60;20.03;;;;;;;2.52;100.00;101722.53;5004358;28;20216;-46
2022/01/28 00:43:54;;;;;;;20.97;17.53;;;;;;;2.51;100.00;101730.09;5005188;28;20720;-46
2022/01/28 00:46:19;;;;;;;22.20;17.40;;;;;;;2.51;100.00;101741.22;4998370;28;20196;-46
2022/01/28 00:48:45;;;;;;;18.93;15.30;;;;;;;2.50;100.00;101744.56;5001921;28;20351;-46
2022/01/28 00:51:10;;;;;;;18.00;14.97;;;;;;;2.51;100.00;101746.34;5005085;28;20269;-46
2022/01/28 00:53:35;;;;;;;22.60;16.90;;;;;;;2.53;100.00;101751.50;5002273;28;20235;-47
2022/01/28 00:56:01;;;;;;;23.43;17.97;;;;;;;2.56;100.00;101754.22;4999929;28;20200;-46
2022/01/28 00:58:26;;;;;;;19.63;16.63;;;;;;;2.56;100.00;101764.44;5004120;28;20209;-47
2022/01/28 01:00:52;;;;;;;19.30;15.60;;;;;;;2.58;100.00;101763.69;5001269;28;20284;-47
2022/01/28 01:03:17;;;;;;;20.93;16.20;;;;;;;2.58;100.00;101761.13;5000705;28;20319;-46
2022/01/28 01:05:42;;;;;;;18.00;15.33;;;;;;;2.58;100.00;101775.63;5006603;28;20696;-47
2022/01/28 01:08:08;;;;;;;19.10;15.13;;;;;;;2.61;100.00;101768.09;5003515;28;20255;-46
2022/01/28 01:10:34;;;;;;;16.73;14.10;;;;;;;2.64;100.00;101760.56;5004830;28;20193;-46
2022/01/28 01:13:01;;;;;;;16.97;13.60;;;;;;;2.65;100.00;101749.53;5001342;28;20287;-46
2022/01/28 01:15:32;;;;;;;16.67;13.10;;;;;;;2.65;100.00;101759.75;5006889;28;20196;-46
2022/01/28 01:18:09;;;;;;;17.87;14.03;;;;;;;2.67;100.00;101765.81;5003483;28;20211;-46
2022/01/28 01:28:36;;;;;;;18.40;14.00;;;;;;;2.67;100.00;101770.06;5014355;28;20295;-47
2022/01/28 01:31:05;;;;;;;17.67;13.70;;;;;;;2.67;100.00;101770.91;5006093;28;20208;-46
2022/01/28 01:33:36;;;;;;;15.47;13.00;;;;;;;2.66;100.00;101775.97;5002966;28;20196;-47
2022/01/28 01:36:03;;;;;;;16.13;12.87;;;;;;;2.69;100.00;101781.25;5001109;28;20587;-47
2022/01/28 01:38:32;;;;;;;16.13;13.07;;;;;;;2.70;100.00;101777.88;5011594;28;20211;-47
2022/01/28 01:41:01;;;;;;;19.03;14.20;;;;;;;2.72;100.00;101789.06;5003145;28;20539;-46
2022/01/28 01:43:49;;;;;;;15.63;12.97;;;;;;;2.70;100.00;101788.97;5007296;28;20642;-46
2022/01/28 01:54:28;;;;;;;16.27;13.93;;;;;;;2.77;100.00;101804.63;5008216;28;20211;-46
2022/01/28 01:56:55;;;;;;;18.00;14.50;;;;;;;2.78;100.00;101802.13;5010868;28;20697;-46
2022/01/28 01:59:21;;;;;;;16.13;13.70;;;;;;;2.79;100.00;101808.97;5005000;28;20215;-48
2022/01/28 02:01:46;;;;;;;16.03;13.33;;;;;;;2.79;100.00;101810.69;5006892;28;20216;-46
2022/01/28 02:04:12;;;;;;;17.67;14.13;;;;;;;2.79;100.00;101813.25;5005103;28;20223;-47
2022/01/28 02:06:38;;;;;;;16.80;14.17;;;;;;;2.77;100.00;101825.06;5007169;28;20664;-47
2022/01/28 02:09:05;;;;;;;16.70;13.83;;;;;;;2.77;100.00;101818.25;5005036;28;20358;-47
2022/01/28 02:11:30;;;;;;;18.33;14.27;;;;;;;2.77;100.00;101820.81;5004927;28;20324;-47
2022/01/28 02:13:56;;;;;;;19.63;14.30;;;;;;;2.79;100.00;101815.78;5012403;28;20200;-48
2022/01/28 02:16:22;;;;;;;16.77;14.07;;;;;;;2.78;100.00;101814.03;5010096;28;20659;-47
2022/01/28 02:18:47;;;;;;;19.53;14.40;;;;;;;2.79;100.00;101816.66;5005053;28;20196;-47
2022/01/28 02:21:15;;;;;;;18.40;14.93;;;;;;;2.77;100.00;101819.94;5007014;28;20189;-47
2022/01/28 02:23:44;;;;;;;18.27;14.10;;;;;;;2.76;100.00;101816.50;5020470;28;20661;-47
2022/01/28 02:26:15;;;;;;;16.73;13.53;;;;;;;2.69;100.00;101817.88;5004091;28;20188;-47
2022/01/28 02:28:43;;;;;;;18.07;13.93;;;;;;;2.65;100.00;101813.41;5006198;28;20246;-47
2022/01/28 02:31:08;;;;;;;16.17;13.47;;;;;;;2.65;100.00;101815.13;4997977;28;20604;-47
2022/01/28 02:33:34;;;;;;;16.30;13.30;;;;;;;2.66;100.00;101824.53;4999443;28;20277;-47
2022/01/28 02:36:04;;;;;;;17.50;13.63;;;;;;;2.68;100.00;101833.16;5003494;28;20184;-47
2022/01/28 02:38:31;;;;;;;16.90;13.37;;;;;;;2.71;100.00;101829.06;5001321;28;20243;-47
2022/01/28 02:40:59;;;;;;;16.23;13.20;;;;;;;2.75;100.00;101824.97;5005087;28;20653;-47
2022/01/28 02:46:10;;;;;;;19.33;14.43;;;;;;;2.78;100.00;101840.47;5006819;28;20206;-45
2022/01/28 02:48:39;;;;;;;17.33;14.27;;;;;;;2.78;100.00;101845.59;5008644;28;20223;-47
2022/01/28 02:51:15;;;;;;;15.90;13.23;;;;;;;2.81;100.00;101837.16;5004761;28;20212;-46
2022/01/28 02:56:34;;;;;;;15.83;12.13;;;;;;;2.80;100.00;101841.41;5007432;28;20228;-47
2022/01/28 02:59:00;;;;;;;16.23;13.73;;;;;;;2.82;100.00;101838.94;5005989;28;20188;-47
2022/01/28 03:01:26;;;;;;;16.07;13.30;;;;;;;2.86;100.00;101853.63;5007333;28;20188;-47
2022/01/28 03:03:54;;;;;;;16.43;12.97;;;;;;;2.87;100.00;101845.16;5002226;28;20193;-47
2022/01/28 03:06:20;;;;;;;15.80;12.87;;;;;;;2.88;100.00;101842.66;5006613;28;20529;-47
2022/01/28 03:09:47;;;;;;;13.13;11.73;;;;;;;2.93;100.00;101847.13;5001717;28;20215;-46
2022/01/28 03:19:51;;;;;;;17.10;13.37;;;;;;;3.04;100.00;101866.41;5002731;28;20211;-46
2022/01/28 03:22:16;;;;;;;18.43;13.43;;;;;;;3.06;100.00;101869.91;5003785;28;20602;-46
2022/01/28 03:24:42;;;;;;;15.73;12.50;;;;;;;3.06;100.00;101875.03;5004554;28;20218;-47
2022/01/28 03:27:15;;;;;;;16.07;13.37;;;;;;;3.08;100.00;101877.66;5007992;28;20216;-47
2022/01/28 03:29:41;;;;;;;16.07;13.37;;;;;;;3.09;100.00;101874.31;5006568;28;20197;-47
2022/01/28 03:32:06;;;;;;;15.70;12.47;;;;;;;3.08;100.00;101887.91;5008548;28;20299;-46
2022/01/28 03:34:32;;;;;;;15.10;12.23;;;;;;;3.10;100.00;101887.16;4999400;28;20220;-47
2022/01/28 03:37:00;;;;;;;16.00;12.50;;;;;;;3.13;100.00;101881.31;5006019;28;20208;-47
2022/01/28 03:39:25;;;;;;;16.73;12.80;;;;;;;3.15;100.00;101882.25;5004225;28;20246;-47
2022/01/28 03:41:50;;;;;;;18.13;13.47;;;;;;;3.13;100.00;101884.75;5012374;28;20191;-46
2022/01/28 03:44:16;;;;;;;17.37;13.27;;;;;;;3.12;100.00;101889.78;5011119;28;20211;-47
2022/01/28 03:46:41;;;;;;;16.50;13.60;;;;;;;3.12;100.00;101889.78;5001763;28;20673;-47
2022/01/28 03:49:09;;;;;;;16.47;13.10;;;;;;;3.11;100.00;101894.03;5004207;28;20262;-46
2022/01/28 03:51:34;;;;;;;18.20;13.53;;;;;;;3.11;100.00;101898.25;5000230;28;20212;-46
2022/01/28 03:53:59;;;;;;;18.10;13.50;;;;;;;3.10;100.00;101906.78;5004045;28;20192;-48
2022/01/28 03:56:25;;;;;;;17.03;13.87;;;;;;;3.08;100.00;101906.69;5001762;28;20211;-47
2022/01/28 03:58:51;;;;;;;16.87;13.47;;;;;;;3.08;100.00;101914.34;5003917;28;20188;-46
2022/01/28 04:01:21;;;;;;;16.27;13.37;;;;;;;3.09;100.00;101910.13;5004351;28;20530;-46
2022/01/28 04:11:41;;;;;;;19.07;14.30;;;;;;;3.10;100.00;101922.97;5005110;28;20266;-46
2022/01/28 04:14:18;;;;;;;16.23;12.50;;;;;;;3.05;100.00;101914.19;5004767;28;20203;-46
2022/01/28 04:19:27;;;;;;;19.00;14.20;;;;;;;2.73;100.00;101916.06;5004563;28;20203;-46
2022/01/28 04:21:53;;;;;;;20.33;14.63;;;;;;;2.56;100.00;101920.34;5004587;28;20544;-46
2022/01/28 04:24:18;;;;;;;18.27;13.90;;;;;;;2.39;100.00;101920.38;4999625;28;20669;-46
2022/01/28 04:26:44;;;;;;;19.07;13.80;;;;;;;2.26;100.00;101935.88;5007255;28;20212;-46
2022/01/28 04:29:11;;;;;;;19.33;13.80;;;;;;;2.10;100.00;101935.06;5004892;28;20621;-46
2022/01/28 04:31:42;;;;;;;19.63;14.67;;;;;;;1.98;100.00;101930.19;5003146;28;20216;-45
2022/01/28 04:34:07;;;;;;;19.33;14.03;;;;;;;1.87;100.00;101928.75;5017394;28;20656;-45
2022/01/28 04:36:37;;;;;;;21.17;15.30;;;;;;;1.81;100.00;101926.75;5011842;28;20197;-45
2022/01/28 04:39:52;;;;;;;20.70;15.33;;;;;;;1.74;100.00;101934.84;5006196;28;20639;-46
2022/01/28 04:47:34;;;;;;;20.83;15.47;;;;;;;1.55;100.00;101952.53;5004945;28;20219;-45
2022/01/28 04:50:09;;;;;;;21.63;16.07;;;;;;;1.49;100.00;101963.28;5013037;28;20184;-45
2022/01/28 05:11:20;;;;;;;23.37;16.50;;;;;;;1.87;100.00;101941.50;5009185;28;20192;-48
2022/01/28 05:27:03;;;;;;;;;;;;;;;;;;;;;
2022/01/28 05:29:25;;;;;;;21.27;15.93;;;;;;;2.05;100.00;101956.91;5003259;28;20188;-46
2022/01/28 05:31:51;;;;;;;21.00;15.67;;;;;;;2.12;100.00;101960.69;5009003;28;20634;-47
2022/01/28 05:34:17;;;;;;;24.13;16.60;;;;;;;2.18;100.00;101963.56;5006461;28;20223;-46
2022/01/28 05:36:42;;;;;;;23.40;15.57;;;;;;;2.24;100.00;101968.13;5013694;28;20219;-46
2022/01/28 05:39:08;;;;;;;19.77;15.13;;;;;;;2.28;100.00;101970.91;5013828;28;20605;-46
2022/01/28 05:41:33;;;;;;;22.67;15.30;;;;;;;2.30;100.00;101973.56;5009576;28;20180;-46
2022/01/28 05:44:01;;;;;;;23.13;15.90;;;;;;;2.32;100.00;101974.53;5013586;28;20192;-46
2022/01/28 05:46:28;;;;;;;22.70;15.80;;;;;;;2.34;100.00;101972.94;5012332;28;20706;-48
2022/01/28 05:48:54;;;;;;;22.57;15.50;;;;;;;2.34;100.00;101983.16;5013520;28;20750;-45
2022/01/28 05:51:19;;;;;;;22.27;15.43;;;;;;;2.36;100.00;101978.97;5013112;28;20205;-47
2022/01/28 05:53:44;;;;;;;20.50;15.33;;;;;;;2.38;100.00;101986.72;5011992;28;20265;-47
2022/01/28 05:56:10;;;;;;;21.17;15.33;;;;;;;2.37;100.00;101990.94;5006939;28;20185;-47
2022/01/28 05:58:35;;;;;;;20.10;15.27;;;;;;;2.41;100.00;101992.88;5015666;28;20208;-45
2022/01/28 06:01:01;;;;;;;22.73;16.10;;;;;;;2.39;100.00;101998.72;5017599;28;20275;-45
2022/01/28 06:03:26;;;;;;;23.60;16.57;;;;;;;2.35;100.00;101999.34;5013604;28;20192;-47
2022/01/28 06:05:51;;;;;;;24.80;16.30;;;;;;;2.35;100.00;102007.00;5014022;28;20223;-46
2022/01/28 06:08:17;;;;;;;26.43;17.27;;;;;;;2.25;100.00;102001.44;5012253;28;20278;-46
2022/01/28 06:10:42;;;;;;;26.07;17.77;;;;;;;2.18;100.00;102009.53;5012589;28;20268;-46
2022/01/28 06:13:11;;;;;;;22.53;16.40;;;;;;;2.09;100.00;102022.69;5014770;28;20294;-46
2022/01/28 06:15:39;;;;;;;23.27;17.17;;;;;;;1.98;100.00;102029.78;5008707;28;20204;-45
2022/01/28 06:18:05;;;;;;;22.80;16.57;;;;;;;1.83;100.00;102024.72;5014186;28;20274;-46
2022/01/28 06:20:30;;;;;;;22.30;15.40;;;;;;;1.73;100.00;102024.13;5020122;28;20183;-46
2022/01/28 06:22:55;;;;;;;22.03;15.53;;;;;;;1.62;100.00;102023.53;5008544;28;20184;-46
2022/01/28 06:25:21;;;;;;;23.00;16.47;;;;;;;1.48;100.00;102038.94;5014092;28;20180;-45
2022/01/28 06:27:46;;;;;;;21.13;15.20;;;;;;;1.39;100.00;102045.19;5009693;28;20211;-47
2022/01/28 06:30:13;;;;;;;24.17;16.20;;;;;;;1.32;100.00;102057.63;5012559;28;20187;-47
2022/01/28 06:32:39;;;;;;;25.70;16.33;;;;;;;1.27;100.00;102046.25;5017988;28;20212;-46
2022/01/28 06:35:09;;;;;;;23.20;16.57;;;;;;;1.21;100.00;102041.69;5022758;28;20674;-46
2022/01/28 06:37:39;;;;;;;25.57;17.10;;;;;;;1.17;100.00;102043.97;4998838;28;20209;-46
2022/01/28 06:40:07;;;;;;;24.53;17.23;;;;;;;1.18;100.00;102036.41;5000939;28;20557;-46
2022/01/28 06:42:32;;;;;;;27.57;18.73;;;;;;;1.11;100.00;102039.41;5002788;28;20263;-46
2022/01/28 06:44:58;;;;;;;31.17;19.40;;;;;;;1.11;100.00;102039.41;5014764;28;20657;-46
2022/01/28 06:47:23;;;;;;;25.27;18.47;;;;;;;1.05;100.00;102037.38;5005827;28;20928;-46
2022/01/28 06:49:48;;;;;;;25.73;18.23;;;;;;;1.02;100.00;102043.94;5013061;28;20197;-46
2022/01/28 06:52:14;;;;;;;25.43;17.87;;;;;;;0.97;100.00;102033.50;5024367;28;20211;-46
2022/01/28 06:54:39;;;;;;;24.97;17.37;;;;;;;0.93;100.00;102041.75;5004357;28;20271;-46
2022/01/28 06:57:05;;;;;;;27.87;17.90;;;;;;;0.90;100.00;102039.03;5015742;28;20211;-46
2022/01/28 06:59:30;;;;;;;25.43;17.90;;;;;;;0.87;100.00;102046.50;5008073;28;20187;-47
2022/01/28 07:01:56;;;;;;;28.27;18.53;;;;;;;0.88;100.00;102040.63;5010497;28;20193;-46
2022/01/28 07:04:21;;;;;;;29.00;19.30;;;;;;;0.93;100.00;102044.28;5011716;28;20747;-46
2022/01/28 07:06:46;;;;;;;27.93;17.60;;;;;;;0.97;100.00;102045.38;5010861;28;20207;-46
2022/01/28 07:09:12;;;;;;;27.43;19.27;;;;;;;1.01;100.00;102053.28;5012727;28;20198;-46
2022/01/28 07:11:37;;;;;;;24.70;17.80;;;;;;;1.11;100.00;102070.00;5009672;28;20668;-46
2022/01/28 07:14:03;;;;;;;27.17;18.17;;;;;;;1.21;100.00;102072.28;5012011;28;20202;-46
2022/01/28 07:16:30;;;;;;;24.27;17.40;;;;;;;1.31;100.00;102077.91;5010214;28;20221;-46
2022/01/28 07:18:55;;;;;;;24.97;17.17;;;;;;;1.39;100.00;102066.50;5012077;28;20675;-46
2022/01/28 07:21:21;;;;;;;25.83;17.43;;;;;;;1.48;100.00;102071.25;5011598;28;20208;-47
2022/01/28 07:23:46;;;;;;;26.03;17.50;;;;;;;1.55;100.00;102075.91;5007815;28;20643;-47
2022/01/28 07:26:12;;;;;;;24.20;16.77;;;;;;;1.62;100.00;102083.13;5006297;28;20198;-47
2022/01/28 07:28:39;;;;;;;25.13;17.50;;;;;;;1.70;100.00;102080.09;5030736;28;20753;-47
2022/01/28 07:31:04;;;;;;;22.90;16.80;;;;;;;1.74;100.00;102089.72;5020227;28;20196;-46
2022/01/28 07:33:30;;;;;;;23.70;16.83;;;;;;;1.79;100.00;102083.19;5011083;28;20200;-46
2022/01/28 07:35:55;;;;;;;25.77;17.53;;;;;;;1.84;100.00;102104.72;4998698;28;20276;-46
2022/01/28 07:38:20;;;;;;;23.53;17.20;;;;;;;1.89;100.00;102111.00;4990774;28;20247;-47
2022/01/28 07:40:46;;;;;;;24.30;17.47;;;;;;;1.97;100.00;102122.50;4999895;28;20188;-46
2022/01/28 07:43:11;;;;;;;23.17;16.33;;;;;;;2.02;100.00;102120.22;5014071;28;20608;-46
2022/01/28 07:45:37;;;;;;;24.17;18.07;;;;;;;2.09;100.00;102119.75;5020211;28;20697;-46
2022/01/28 07:48:03;;;;;;;23.70;17.07;;;;;;;2.16;100.00;102103.09;5031246;28;20214;-46
2022/01/28 07:50:28;;;;;;;23.17;16.53;;;;;;;2.24;100.00;102106.06;5014856;28;20538;-46
2022/01/28 07:52:54;;;;;;;20.30;15.53;;;;;;;2.29;100.00;102108.06;5002614;28;20576;-47
2022/01/28 07:55:19;;;;;;;24.27;17.27;;;;;;;2.37;100.00;102116.16;5010618;28;20188;-46
2022/01/28 07:57:45;;;;;;;21.70;16.13;;;;;;;2.43;100.00;102108.81;5015204;28;20208;-46
2022/01/28 08:00:13;;;;;;;22.10;15.53;;;;;;;2.52;100.00;102117.78;5011403;28;20275;-46
2022/01/28 08:02:39;;;;;;;19.47;14.93;;;;;;;2.58;100.00;102129.19;5010827;28;20231;-46
2022/01/28 08:05:05;;;;;;;21.63;15.20;;;;;;;2.65;100.00;102143.19;5011494;28;20189;-46
2022/01/28 08:07:30;;;;;;;20.37;15.73;;;;;;;2.70;100.00;102139.22;5010805;28;20624;-46
2022/01/28 08:09:55;;;;;;;21.03;16.00;;;;;;;2.77;100.00;102139.56;5002859;28;20192;-46
2022/01/28 08:12:21;;;;;;;19.77;15.03;;;;;;;2.83;100.00;102152.63;5005365;28;20676;-46
2022/01/28 08:14:48;;;;;;;21.20;16.23;;;;;;;2.87;100.00;102160.53;5018953;28;20235;-46
2022/01/28 08:17:14;;;;;;;19.67;15.73;;;;;;;2.94;100.00;102160.88;5017039;28;20286;-46
2022/01/28 08:19:39;;;;;;;20.67;15.73;;;;;;;2.98;100.00;102168.78;5020156;28;20266;-46
2022/01/28 08:22:05;;;;;;;22.17;15.40;;;;;;;3.04;100.00;102169.13;5010453;28;20196;-46
2022/01/28 08:24:30;;;;;;;19.37;14.83;;;;;;;3.11;100.00;102179.66;5012207;28;20184;-48
2022/01/28 08:26:56;;;;;;;18.77;14.70;;;;;;;3.16;100.00;102176.56;5015097;28;20700;-48
2022/01/28 08:29:22;;;;;;;18.30;15.17;;;;;;;3.23;100.00;102184.53;5009183;28;20189;-48
2022/01/28 08:31:48;;;;;;;19.40;14.07;;;;;;;3.31;100.00;102179.03;5009508;28;20583;-48
2022/01/28 08:34:13;;;;;;;18.70;14.73;;;;;;;3.42;100.00;102181.25;5016720;28;20204;-48
2022/01/28 08:36:39;;;;;;;17.73;13.87;;;;;;;3.50;100.00;102182.53;5010878;28;20188;-47
2022/01/28 08:39:06;;;;;;;20.17;14.80;;;;;;;3.59;100.00;102174.44;5007727;28;20200;-48
2022/01/28 08:41:34;;;;;;;20.00;15.23;;;;;;;3.65;100.00;102167.94;5011250;28;20544;-48
2022/01/28 08:44:00;;;;;;;20.17;14.53;;;;;;;3.71;100.00;102171.59;5009226;28;20187;-47
2022/01/28 08:46:25;;;;;;;17.47;14.57;;;;;;;3.77;100.00;102169.34;5015393;28;20180;-47
2022/01/28 08:48:51;;;;;;;19.40;15.70;;;;;;;3.80;100.00;102188.28;5007385;28;20657;-47
2022/01/28 08:51:16;;;;;;;18.07;14.30;;;;;;;3.87;100.00;102186.91;5022749;28;20208;-48
2022/01/28 08:53:42;;;;;;;18.07;14.67;;;;;;;3.92;100.00;102198.28;5010883;28;20878;-47
2022/01/28 08:56:08;;;;;;;18.73;14.73;;;;;;;3.99;100.00;102198.59;5013433;28;20740;-47
2022/01/28 08:58:34;;;;;;;20.10;14.13;;;;;;;4.04;100.00;102198.00;5013001;28;20305;-47
2022/01/28 09:01:10;;;;;;;15.77;13.57;;;;;;;4.09;100.00;102196.53;5019390;28;20183;-47
2022/01/28 09:03:35;;;;;;;16.63;13.60;;;;;;;4.14;100.00;102188.19;5015323;28;20221;-47
2022/01/28 09:06:00;;;;;;;16.93;14.23;;;;;;;4.20;100.00;102186.78;5016999;28;20188;-47
2022/01/28 09:08:26;;;;;;;16.10;12.67;;;;;;;4.27;100.00;102182.84;5016230;28;20234;-47
2022/01/28 09:11:00;;;;;;;17.77;13.53;;;;;;;4.34;100.00;102168.63;5013420;28;20185;-48
2022/01/28 09:13:37;;;;;;;18.37;13.80;;;;;;;4.42;100.00;102168.19;5016929;28;20461;-47
2022/01/28 09:16:03;;;;;;;15.90;13.53;;;;;;;4.51;100.00;102167.72;5020229;28;20629;-47
2022/01/28 09:18:29;;;;;;;15.17;12.30;;;;;;;4.62;100.00;102173.38;5010047;28;20208;-48
2022/01/28 09:20:56;;;;;;;17.40;13.93;;;;;;;4.73;100.00;102172.16;5016786;28;20715;-47
2022/01/28 09:23:21;;;;;;;15.93;12.57;;;;;;;4.82;100.00;102176.81;5017277;28;20193;-47
2022/01/28 09:25:47;;;;;;;14.17;12.63;;;;;;;4.92;100.00;102178.13;5010321;28;20543;-47
2022/01/28 09:28:13;;;;;;;13.97;12.03;;;;;;;4.98;100.00;102177.53;5017979;28;20746;-48
2022/01/28 09:30:38;;;;;;;15.63;12.77;;;;;;;5.03;100.00;102179.47;5012308;28;20219;-48
2022/01/28 09:33:04;;;;;;;14.83;13.17;;;;;;;5.12;100.00;102181.56;5019580;28;20209;-48
2022/01/28 09:35:30;;;;;;;13.97;12.23;;;;;;;5.19;100.00;102181.03;5015453;28;20884;-49
2022/01/28 09:37:55;;;;;;;14.23;12.10;;;;;;;5.29;100.00;102178.88;5018770;28;20254;-47
2022/01/28 09:40:22;;;;;;;21.90;17.67;;;;;;;5.38;100.00;102181.81;5023695;28;20267;-46
2022/01/28 09:42:48;;;;;;;18.13;15.30;;;;;;;5.51;100.00;102190.06;5005795;28;20185;-47
2022/01/28 09:45:16;;;;;;;17.27;13.63;;;;;;;5.56;100.00;102196.25;5017460;28;20188;-46
2022/01/28 09:47:42;;;;;;;19.53;14.67;;;;;;;5.59;100.00;102201.53;5006593;28;20311;-46
2022/01/28 09:50:08;;;;;;;18.33;14.33;;;;;;;5.63;100.00;102200.88;5021131;28;20268;-46
2022/01/28 09:52:34;;;;;;;15.77;12.60;;;;;;;5.73;100.00;102199.56;5016736;28;20223;-46
2022/01/28 09:55:00;;;;;;;14.83;12.60;;;;;;;5.81;100.00;102198.16;5021121;28;20196;-46
2022/01/28 09:57:25;;;;;;;14.73;12.60;;;;;;;5.90;100.00;102205.38;5023273;28;20322;-46
2022/01/28 09:59:51;;;;;;;14.90;11.83;;;;;;;5.97;100.00;102202.28;5019269;28;20649;-47
2022/01/28 10:02:16;;;;;;;17.47;13.30;;;;;;;6.03;100.00;102211.94;5016111;28;20206;-47
2022/01/28 10:04:42;;;;;;;14.77;12.60;;;;;;;6.04;100.00;102211.13;5019530;28;21440;-47
2022/01/28 10:07:17;;;;;;;13.20;11.80;;;;;;;6.14;100.00;102225.22;5006871;28;20217;-47
2022/01/28 10:09:58;;;;;;;15.20;11.67;;;;;;;6.21;100.00;102211.81;5004470;28;20234;-48
2022/01/28 10:12:41;;;;;;;12.80;10.73;;;;;;;6.29;100.00;102223.25;5017648;28;20703;-46
2022/01/28 10:15:27;;;;;;;13.77;10.63;;;;;;;6.39;100.00;102217.69;5019858;28;20198;-47
2022/01/28 10:17:55;;;;;;;14.33;12.17;;;;;;;6.37;100.00;102215.84;5019828;28;20219;-47
2022/01/28 10:20:22;;;;;;;17.33;12.57;;;;;;;6.33;100.00;102220.00;5023938;28;20183;-48
2022/01/28 10:22:52;;;;;;;13.80;10.93;;;;;;;6.33;100.00;102214.00;5013520;28;20509;-48
2022/01/28 10:25:34;;;;;;;16.37;11.27;;;;;;;6.38;100.00;102207.31;5006750;28;20195;-47
2022/01/28 10:28:08;;;;;;;12.30;10.97;;;;;;;6.42;100.00;102210.91;5020509;28;20201;-47
2022/01/28 10:30:40;;;;;;;13.80;11.90;;;;;;;6.48;100.00;102211.13;5017930;28;20187;-47
2022/01/28 10:33:21;;;;;;;12.60;10.97;;;;;;;6.51;100.00;102218.97;5019087;28;20213;-47
2022/01/28 10:35:52;;;;;;;12.83;11.23;;;;;;;6.60;100.00;102210.75;5005797;28;20203;-48
2022/01/28 10:38:35;;;;;;;12.03;10.00;;;;;;;6.69;100.00;102211.97;5003950;28;20226;-48
2022/01/28 10:41:09;;;;;;;13.70;11.67;;;;;;;6.80;100.00;102199.53;5019300;28;20190;-48
2022/01/28 10:43:42;;;;;;;12.33;10.60;;;;;;;6.90;100.00;102208.44;5015186;28;20244;-48
2022/01/28 10:46:07;;;;;;;12.10;10.10;;;;;;;7.01;100.00;102209.72;5019613;28;20601;-47
2022/01/28 10:48:49;;;;;;;14.07;10.83;;;;;;;7.14;100.00;102213.59;5014203;28;20220;-47
2022/01/28 10:51:17;;;;;;;13.03;11.10;;;;;;;7.16;100.00;102211.97;5022561;28;20181;-48
2022/01/28 10:53:42;;;;;;;12.27;10.20;;;;;;;7.15;100.00;102225.66;5004150;28;20210;-48
2022/01/28 10:56:11;;;;;;;11.90;10.60;;;;;;;7.16;100.00;102218.84;5021142;28;20232;-48
2022/01/28 10:58:38;;;;;;;13.10;10.73;;;;;;;7.09;100.00;102220.31;5010885;28;20210;-48
2022/01/28 11:01:04;;;;;;;11.30;10.03;;;;;;;6.99;100.00;102241.38;5010746;28;20663;-48
2022/01/28 11:03:30;;;;;;;12.47;10.67;;;;;;;6.88;100.00;102234.94;5008661;28;20184;-48
2022/01/28 11:06:01;;;;;;;12.90;11.13;;;;;;;6.77;100.00;102235.44;5016202;28;20201;-48
2022/01/28 11:08:29;;;;;;;11.73;10.13;;;;;;;6.76;100.00;102232.78;5015667;28;20210;-48
2022/01/28 11:10:55;;;;;;;11.67;9.83;;;;;;;6.74;100.00;102222.44;5011985;28;20289;-47
2022/01/28 11:13:21;;;;;;;10.60;9.50;;;;;;;6.81;100.00;102216.69;5011066;28;20221;-48
2022/01/28 11:15:46;;;;;;;11.93;10.33;;;;;;;6.89;100.00;102211.81;5011825;28;20198;-47
2022/01/28 11:18:15;;;;;;;12.27;10.43;;;;;;;7.00;100.00;102219.94;5009996;28;20248;-48
2022/01/28 11:20:54;;;;;;;11.77;10.50;;;;;;;7.13;100.00;102226.44;5004761;28;20211;-47
2022/01/28 11:23:29;;;;;;;11.37;10.17;;;;;;;7.23;100.00;102222.50;5010644;28;20236;-47
2022/01/28 11:26:12;;;;;;;11.30;10.07;;;;;;;7.36;100.00;102223.81;5011073;28;20405;-47
2022/01/28 11:28:55;;;;;;;11.53;9.70;;;;;;;7.42;100.00;102218.88;5007172;28;20220;-47
2022/01/28 11:31:41;;;;;;;12.37;10.33;;;;;;;7.48;100.00;102226.84;5004634;28;20295;-47
2022/01/28 11:34:36;;;;;;;11.83;10.23;;;;;;;7.43;100.00;102223.22;5011703;28;20176;-47
2022/01/28 11:37:01;;;;;;;11.30;10.13;;;;;;;7.37;100.00;102230.72;5009371;28;20222;-47
2022/01/28 11:39:29;;;;;;;12.93;10.83;;;;;;;7.27;100.00;102211.47;5030682;28;20557;-47
2022/01/28 11:42:00;;;;;;;10.83;9.60;;;;;;;7.20;100.00;102218.09;5000553;28;20614;-47
2022/01/28 11:44:50;;;;;;;11.20;9.63;;;;;;;7.14;100.00;102216.19;5010759;28;20190;-47
2022/01/28 11:47:24;;;;;;;13.43;11.33;;;;;;;7.01;100.00;102206.25;5011254;28;20642;-47
2022/01/28 11:50:07;;;;;;;14.03;11.53;;;;;;;6.84;100.00;102211.66;5010246;28;20202;-47
2022/01/28 11:52:38;;;;;;;13.43;11.10;;;;;;;6.70;100.00;102224.03;5004499;28;20215;-47
2022/01/28 11:55:20;;;;;;;14.60;11.70;;;;;;;6.68;100.00;102227.34;5006135;28;20195;-47
2022/01/28 11:57:55;;;;;;;13.53;11.70;;;;;;;6.76;100.00;102220.81;5004669;28;20602;-47
2022/01/28 12:00:35;;;;;;;16.23;13.50;;;;;;;6.84;100.00;102209.09;5005350;28;20201;-47
2022/01/28 12:03:02;;;;;;;16.57;13.80;;;;;;;6.92;100.00;102205.94;5007592;28;20193;-47
2022/01/28 12:05:30;;;;;;;24.60;17.60;;;;;;;7.01;100.00;102207.16;5008077;28;21008;-47
2022/01/28 12:07:57;;;;;;;23.80;17.33;;;;;;;6.98;100.00;102199.31;5005550;28;20214;-47
2022/01/28 12:10:24;;;;;;;26.03;18.43;;;;;;;6.93;100.00;102197.41;5005158;28;20424;-47
2022/01/28 12:12:58;;;;;;;24.03;18.20;;;;;;;6.87;100.00;102200.63;5001109;28;20705;-47
2022/01/28 12:15:29;;;;;;;20.77;15.73;;;;;;;6.83;100.00;102191.88;5014383;28;20235;-47
2022/01/28 12:18:12;;;;;;;20.03;15.30;;;;;;;6.76;100.00;102194.19;5015104;28;20224;-47
2022/01/28 12:20:39;;;;;;;23.50;17.33;;;;;;;6.75;100.00;102202.72;5010410;28;20194;-47
2022/01/28 12:23:10;;;;;;;20.40;16.30;;;;;;;6.70;100.00;102184.53;5008631;28;20588;-47
2022/01/28 12:25:35;;;;;;;17.80;15.00;;;;;;;6.66;100.00;102175.84;5005359;28;20565;-47
2022/01/28 12:28:16;;;;;;;16.10;13.47;;;;;;;6.72;100.00;102162.31;5008628;28;20226;-47
2022/01/28 12:30:44;;;;;;;14.87;11.73;;;;;;;6.85;100.00;102161.09;5007018;28;20195;-47
2022/01/28 12:33:10;;;;;;;16.63;13.03;;;;;;;6.96;100.00;102148.56;5007717;28;20747;-47
2022/01/28 12:35:40;;;;;;;14.33;12.83;;;;;;;6.99;100.00;102156.41;5006775;28;20260;-47
2022/01/28 12:38:06;;;;;;;14.70;12.57;;;;;;;6.95;100.00;102154.56;5006246;28;21845;-47
2022/01/28 12:40:36;;;;;;;14.83;12.27;;;;;;;6.93;100.00;102161.34;5002878;28;20331;-47
2022/01/28 12:43:04;;;;;;;16.17;13.20;;;;;;;6.98;100.00;102163.28;5004179;28;20182;-48
2022/01/28 12:45:30;;;;;;;16.80;14.17;;;;;;;7.10;100.00;102168.00;5001767;28;20261;-47
2022/01/28 12:47:56;;;;;;;18.57;14.20;;;;;;;7.30;100.00;102172.94;5003595;28;20305;-48
2022/01/28 12:50:22;;;;;;;15.70;12.03;;;;;;;7.54;100.00;102165.19;4997133;28;20659;-47
2022/01/28 12:52:47;;;;;;;16.17;11.83;;;;;;;7.80;100.00;102162.59;5001603;28;20209;-47
2022/01/28 12:55:13;;;;;;;16.27;12.37;;;;;;;7.90;100.00;102162.09;5012332;28;20552;-48
2022/01/28 12:57:45;;;;;;;17.13;13.50;;;;;;;7.92;99.77;102138.94;4998897;28;20230;-48
2022/01/28 13:00:11;;;;;;;16.13;13.60;;;;;;;7.89;99.77;102142.28;5001865;28;20199;-48